createdAt,value
2019-01-23T00:01:39.054Z,8.73
2019-01-23T00:04:06.571Z,8.33
2019-01-23T00:06:33.932Z,9.07
2019-01-23T00:09:01.457Z,7.10
2019-01-23T00:11:28.838Z,9.50
2019-01-23T00:13:56.264Z,9.00
2019-01-23T00:16:23.692Z,9.63
2019-01-23T00:18:51.181Z,11.37
2019-01-23T00:21:18.568Z,10.03
2019-01-23T00:23:45.993Z,7.47
2019-01-23T00:26:13.413Z,9.83
2019-01-23T00:28:42.390Z,7.10
2019-01-23T00:31:09.921Z,10.77
2019-01-23T00:33:37.337Z,9.13
2019-01-23T00:36:04.792Z,10.57
2019-01-23T00:38:32.371Z,9.93
2019-01-23T00:40:59.762Z,6.63
2019-01-23T00:43:27.143Z,8.43
2019-01-23T00:45:54.566Z,8.77
2019-01-23T00:48:21.945Z,5.97
2019-01-23T00:50:49.361Z,7.80
2019-01-23T00:53:16.728Z,5.97
2019-01-23T00:55:44.144Z,10.53
2019-01-23T00:58:11.598Z,14.57
2019-01-23T01:00:39.015Z,8.70
2019-01-23T01:03:06.539Z,6.57
2019-01-23T01:05:33.997Z,11.73
2019-01-23T01:08:01.376Z,8.40
2019-01-23T01:10:28.791Z,9.17
2019-01-23T01:12:56.239Z,7.17
2019-01-23T01:15:23.728Z,7.17
2019-01-23T01:17:51.104Z,9.27
2019-01-23T01:20:18.536Z,8.57
2019-01-23T01:22:45.915Z,7.37
2019-01-23T01:25:17.399Z,10.80
2019-01-23T01:27:44.960Z,10.87
2019-01-23T01:30:13.921Z,10.00
2019-01-23T01:32:41.323Z,6.50
2019-01-23T01:35:08.905Z,7.53
2019-01-23T01:37:36.277Z,8.33
2019-01-23T01:40:05.561Z,7.95
2019-01-23T01:42:32.991Z,6.63
2019-01-23T01:45:00.405Z,8.13
2019-01-23T01:47:27.790Z,10.47
2019-01-23T01:49:55.198Z,5.30
2019-01-23T01:52:22.580Z,9.23
2019-01-23T01:54:52.977Z,9.80
2019-01-23T01:57:20.432Z,7.47
2019-01-23T01:59:47.826Z,6.50
2019-01-23T02:02:15.230Z,7.27
2019-01-23T02:04:42.622Z,6.63
2019-01-23T02:07:10.049Z,6.40
2019-01-23T02:09:37.429Z,9.40
2019-01-23T02:12:04.928Z,10.47
2019-01-23T02:14:32.314Z,9.17
2019-01-23T02:16:59.793Z,8.33
2019-01-23T02:19:27.187Z,6.57
2019-01-23T02:21:54.601Z,7.80
2019-01-23T02:24:22.011Z,10.67
2019-01-23T02:26:49.399Z,8.63
2019-01-23T02:29:16.785Z,6.43
2019-01-23T02:31:44.245Z,8.40
2019-01-23T02:34:11.633Z,6.57
2019-01-23T02:36:39.121Z,8.67
2019-01-23T02:39:06.876Z,7.87
2019-01-23T02:41:34.352Z,15.40
2019-01-23T02:44:01.740Z,5.73
2019-01-23T02:46:29.154Z,8.67
2019-01-23T02:48:56.538Z,7.10
2019-01-23T02:51:23.944Z,10.97
2019-01-23T02:53:51.328Z,8.30
2019-01-23T02:56:18.737Z,8.90
2019-01-23T02:58:46.123Z,9.63
2019-01-23T03:01:13.604Z,9.87
2019-01-23T03:03:40.981Z,8.07
2019-01-23T03:06:08.408Z,7.47
2019-01-23T03:08:35.833Z,7.37
2019-01-23T03:11:03.245Z,10.07
2019-01-23T03:13:30.628Z,8.77
2019-01-23T03:15:58.042Z,9.20
2019-01-23T03:18:25.424Z,10.20
2019-01-23T03:20:52.841Z,6.67
2019-01-23T03:23:20.275Z,9.47
2019-01-23T03:25:47.658Z,8.10
2019-01-23T03:28:15.073Z,8.37
2019-01-23T03:30:43.467Z,6.67
2019-01-23T03:33:10.881Z,5.20
2019-01-23T03:35:38.372Z,5.43
2019-01-23T03:38:05.798Z,7.80
2019-01-23T03:40:33.291Z,7.60
2019-01-23T03:43:00.711Z,9.10
2019-01-23T03:45:28.097Z,7.03
2019-01-23T03:47:55.593Z,6.17
2019-01-23T03:50:22.974Z,8.73
2019-01-23T03:52:50.474Z,8.07
2019-01-23T03:55:18.424Z,7.50
2019-01-23T03:57:46.106Z,7.20
2019-01-23T04:00:14.656Z,8.60
2019-01-23T04:02:42.238Z,8.50
2019-01-23T04:05:10.498Z,10.93
2019-01-23T04:07:37.914Z,7.37
2019-01-23T04:10:09.724Z,7.63
2019-01-23T04:12:37.132Z,7.57
2019-01-23T04:15:05.986Z,6.47
2019-01-23T04:17:33.395Z,8.80
2019-01-23T04:20:00.782Z,7.30
2019-01-23T04:22:28.193Z,6.10
2019-01-23T04:24:55.579Z,7.23
2019-01-23T04:27:22.986Z,6.70
2019-01-23T04:29:50.419Z,7.50
2019-01-23T04:32:18.116Z,7.40
2019-01-23T04:34:45.550Z,6.23
2019-01-23T04:37:13.024Z,6.63
2019-01-23T04:39:40.412Z,9.87
2019-01-23T04:42:07.818Z,7.83
2019-01-23T04:44:35.270Z,7.97
2019-01-23T04:47:02.680Z,7.20
2019-01-23T04:49:30.067Z,5.93
2019-01-23T04:52:01.984Z,9.00
2019-01-23T04:54:29.404Z,6.70
2019-01-23T04:56:56.787Z,4.90
2019-01-23T04:59:24.202Z,7.70
2019-01-23T05:01:51.596Z,7.07
2019-01-23T05:04:19.068Z,5.43
2019-01-23T05:06:46.453Z,6.33
2019-01-23T05:09:13.865Z,5.17
2019-01-23T05:11:41.251Z,6.37
2019-01-23T05:14:08.662Z,7.73
2019-01-23T05:16:36.051Z,11.40
2019-01-23T05:19:03.461Z,7.27
2019-01-23T05:21:30.850Z,8.37
2019-01-23T05:23:58.263Z,9.43
2019-01-23T05:26:25.711Z,6.80
2019-01-23T05:28:53.144Z,5.73
2019-01-23T05:31:20.518Z,7.87
2019-01-23T05:33:48.015Z,7.47
2019-01-23T05:36:15.430Z,6.03
2019-01-23T05:38:42.849Z,7.90
2019-01-23T05:41:10.230Z,7.43
2019-01-23T05:43:37.655Z,9.50
2019-01-23T05:46:05.046Z,12.30
2019-01-23T05:48:32.574Z,10.67
2019-01-23T05:50:59.971Z,13.70
2019-01-23T05:53:27.379Z,9.50
2019-01-23T05:55:54.768Z,17.60
2019-01-23T05:58:22.158Z,15.77
2019-01-23T06:00:49.576Z,17.03
2019-01-23T06:03:16.972Z,14.50
2019-01-23T06:05:44.396Z,13.03
2019-01-23T06:08:11.780Z,30.77
2019-01-23T06:10:39.343Z,17.43
2019-01-23T06:13:06.695Z,24.70
2019-01-23T06:15:34.198Z,15.77
2019-01-23T06:18:01.590Z,19.10
2019-01-23T06:20:28.996Z,15.40
2019-01-23T06:22:56.380Z,29.00
2019-01-23T06:25:23.803Z,18.55
2019-01-23T06:27:51.192Z,17.63
2019-01-23T06:30:19.899Z,10.10
2019-01-23T06:32:47.554Z,14.87
2019-01-23T06:35:15.044Z,17.73
2019-01-23T06:37:42.430Z,14.13
2019-01-23T06:40:11.217Z,14.53
2019-01-23T06:42:38.606Z,11.77
2019-01-23T06:45:07.670Z,16.37
2019-01-23T06:47:35.058Z,16.40
2019-01-23T06:50:02.750Z,14.93
2019-01-23T06:52:30.129Z,11.40
2019-01-23T06:54:57.541Z,11.73
2019-01-23T06:57:24.930Z,10.73
2019-01-23T06:59:52.412Z,9.53
2019-01-23T07:02:19.802Z,17.83
2019-01-23T07:04:47.212Z,22.53
2019-01-23T07:07:14.659Z,10.80
2019-01-23T07:09:42.110Z,16.17
2019-01-23T07:12:09.565Z,18.93
2019-01-23T07:14:36.948Z,7.27
2019-01-23T07:17:04.378Z,11.60
2019-01-23T07:19:31.770Z,10.10
2019-01-23T07:21:59.196Z,11.80
2019-01-23T07:24:26.573Z,11.53
2019-01-23T07:26:53.989Z,6.60
2019-01-23T07:29:21.366Z,12.97
2019-01-23T07:31:48.853Z,14.83
2019-01-23T07:34:16.241Z,6.93
2019-01-23T07:36:43.662Z,12.10
2019-01-23T07:39:11.115Z,8.07
2019-01-23T07:41:38.521Z,8.70
2019-01-23T07:44:05.910Z,11.83
2019-01-23T07:46:33.320Z,9.20
2019-01-23T07:49:00.715Z,7.30
2019-01-23T07:51:28.150Z,11.40
2019-01-23T07:53:55.529Z,7.60
2019-01-23T07:56:22.945Z,9.93
2019-01-23T07:58:50.437Z,8.13
2019-01-23T08:01:17.862Z,9.70
2019-01-23T08:03:45.248Z,6.70
2019-01-23T08:06:12.678Z,9.70
2019-01-23T08:08:40.171Z,7.83
2019-01-23T08:11:07.581Z,7.80
2019-01-23T08:13:34.966Z,7.80
2019-01-23T08:16:02.373Z,9.60
2019-01-23T08:18:29.784Z,14.33
2019-01-23T08:20:57.198Z,11.70
2019-01-23T08:23:24.573Z,7.30
2019-01-23T08:25:51.965Z,11.60
2019-01-23T08:28:19.447Z,5.20
2019-01-23T08:30:46.828Z,7.80
2019-01-23T08:33:14.231Z,8.90
2019-01-23T08:35:41.616Z,6.90
2019-01-23T08:38:09.069Z,5.93
2019-01-23T08:40:36.445Z,9.20
2019-01-23T08:43:04.038Z,11.27
2019-01-23T08:45:31.424Z,9.67
2019-01-23T08:47:58.839Z,9.33
2019-01-23T08:50:30.453Z,8.57
2019-01-23T08:52:57.932Z,8.13
2019-01-23T08:55:25.388Z,6.50
2019-01-23T08:57:52.797Z,14.10
2019-01-23T09:00:20.248Z,8.67
2019-01-23T09:02:47.657Z,6.60
2019-01-23T09:05:15.122Z,8.43
2019-01-23T09:07:42.618Z,6.90
2019-01-23T09:10:11.536Z,8.77
2019-01-23T09:12:39.099Z,7.00
2019-01-23T09:15:08.025Z,10.03
2019-01-23T09:17:35.425Z,9.93
2019-01-23T09:20:02.876Z,6.70
2019-01-23T09:22:30.298Z,7.63
2019-01-23T09:24:57.678Z,8.83
2019-01-23T09:27:25.092Z,6.80
2019-01-23T09:29:52.482Z,8.07
2019-01-23T09:32:24.375Z,8.33
2019-01-23T09:34:59.087Z,5.80
2019-01-23T09:37:28.034Z,7.03
2019-01-23T09:39:59.910Z,6.87
2019-01-23T09:42:31.829Z,7.03
2019-01-23T09:45:00.754Z,13.33
2019-01-23T09:47:38.906Z,14.43
2019-01-23T09:50:10.570Z,5.37
2019-01-23T09:52:45.238Z,6.87
2019-01-23T09:55:12.622Z,7.43
2019-01-23T09:57:41.568Z,6.20
2019-01-23T10:00:13.424Z,8.80
2019-01-23T10:02:40.803Z,7.37
2019-01-23T10:05:08.586Z,5.83
2019-01-23T10:07:36.030Z,5.87
2019-01-23T10:10:05.571Z,8.28
2019-01-23T10:12:32.954Z,9.30
2019-01-23T10:15:00.378Z,11.03
2019-01-23T10:17:27.759Z,9.40
2019-01-23T10:19:55.173Z,8.77
2019-01-23T10:22:22.619Z,7.53
2019-01-23T10:24:50.038Z,6.50
2019-01-23T10:27:17.423Z,7.53
2019-01-23T10:29:44.863Z,6.73
2019-01-23T10:32:12.311Z,6.50
2019-01-23T10:34:39.722Z,13.20
2019-01-23T10:37:07.089Z,5.67
2019-01-23T10:39:34.521Z,9.77
2019-01-23T10:42:01.954Z,6.70
2019-01-23T10:44:29.391Z,8.73
2019-01-23T10:46:56.777Z,10.50
2019-01-23T10:49:24.202Z,7.93
2019-01-23T10:51:51.580Z,8.47
2019-01-23T10:54:18.995Z,11.43
2019-01-23T10:56:46.447Z,10.10
2019-01-23T10:59:13.859Z,14.77
2019-01-23T11:01:41.242Z,12.03
2019-01-23T11:04:08.721Z,7.40
2019-01-23T11:06:36.109Z,7.20
2019-01-23T11:09:05.062Z,9.77
2019-01-23T11:11:32.448Z,13.83
2019-01-23T11:13:59.869Z,12.00
2019-01-23T11:16:27.254Z,6.20
2019-01-23T11:18:54.664Z,8.97
2019-01-23T11:21:22.129Z,12.30
2019-01-23T11:23:49.502Z,11.27
2019-01-23T11:26:16.929Z,11.60
2019-01-23T11:28:44.411Z,9.27
2019-01-23T11:31:11.826Z,10.73
2019-01-23T11:33:39.221Z,16.30
2019-01-23T11:36:06.707Z,8.97
2019-01-23T11:38:34.095Z,11.23
2019-01-23T11:41:01.574Z,8.87
2019-01-23T11:43:28.957Z,8.30
2019-01-23T11:45:56.450Z,9.10
2019-01-23T11:48:23.876Z,10.67
2019-01-23T11:50:51.277Z,10.83
2019-01-23T11:53:18.651Z,11.30
2019-01-23T11:55:46.065Z,14.30
2019-01-23T11:58:13.445Z,13.73
2019-01-23T12:00:40.873Z,6.60
2019-01-23T12:03:08.327Z,10.03
2019-01-23T12:05:36.514Z,10.83
2019-01-23T12:08:04.238Z,12.73
2019-01-23T12:10:31.656Z,10.40
2019-01-23T12:12:59.037Z,12.20
2019-01-23T12:15:26.485Z,10.77
2019-01-23T12:17:54.029Z,12.40
2019-01-23T12:20:21.702Z,7.90
2019-01-23T12:22:49.399Z,10.50
2019-01-23T12:25:16.808Z,9.07
2019-01-23T12:27:44.265Z,9.73
2019-01-23T12:30:13.269Z,13.30
2019-01-23T12:32:40.661Z,10.23
2019-01-23T12:35:08.840Z,9.63
2019-01-23T12:37:36.222Z,10.53
2019-01-23T12:40:05.912Z,6.50
2019-01-23T12:42:33.298Z,8.50
2019-01-23T12:45:00.810Z,10.40
2019-01-23T12:47:28.300Z,9.07
2019-01-23T12:49:55.691Z,10.47
2019-01-23T12:52:23.115Z,8.47
2019-01-23T12:54:50.537Z,10.27
2019-01-23T12:57:17.962Z,11.00
2019-01-23T12:59:45.346Z,8.33
2019-01-23T13:02:12.845Z,7.30
2019-01-23T13:04:40.303Z,11.63
2019-01-23T13:07:07.852Z,9.27
2019-01-23T13:09:35.282Z,9.30
2019-01-23T13:12:02.770Z,8.60
2019-01-23T13:14:30.195Z,7.33
2019-01-23T13:16:57.618Z,8.90
2019-01-23T13:19:25.113Z,8.13
2019-01-23T13:21:52.524Z,8.80
2019-01-23T13:24:19.915Z,10.57
2019-01-23T13:26:47.329Z,8.50
2019-01-23T13:29:14.734Z,9.00
2019-01-23T13:31:48.923Z,9.03
2019-01-23T13:34:11.182Z,10.27
2019-01-23T13:36:38.584Z,9.97
2019-01-23T13:39:07.727Z,12.37
2019-01-23T13:41:35.141Z,16.53
2019-01-23T13:44:02.606Z,13.57
2019-01-23T13:46:30.033Z,6.70
2019-01-23T13:48:57.416Z,7.17
2019-01-23T13:51:24.833Z,8.17
2019-01-23T13:53:52.279Z,9.00
2019-01-23T13:56:19.723Z,6.00
2019-01-23T13:58:47.199Z,10.87
2019-01-23T14:01:14.656Z,13.43
2019-01-23T14:03:42.142Z,11.07
2019-01-23T14:06:09.534Z,13.93
2019-01-23T14:08:37.055Z,16.87
2019-01-23T14:11:04.505Z,9.33
2019-01-23T14:13:31.913Z,15.77
2019-01-23T14:15:59.307Z,12.47
2019-01-23T14:18:26.718Z,11.67
2019-01-23T14:20:54.204Z,8.27
2019-01-23T14:23:21.615Z,7.90
2019-01-23T14:25:49.001Z,6.97
2019-01-23T14:28:16.495Z,8.87
2019-01-23T14:30:44.034Z,12.70
2019-01-23T14:33:11.447Z,12.30
2019-01-23T14:35:39.315Z,9.77
2019-01-23T14:38:06.747Z,8.47
2019-01-23T14:40:34.300Z,7.60
2019-01-23T14:43:01.725Z,11.60
2019-01-23T14:45:29.178Z,8.80
2019-01-23T14:47:56.674Z,15.03
2019-01-23T14:50:25.084Z,14.80
2019-01-23T14:52:52.821Z,12.17
2019-01-23T14:55:20.197Z,9.27
2019-01-23T14:57:47.679Z,11.53
2019-01-23T15:00:19.385Z,9.70
2019-01-23T15:02:47.267Z,7.70
2019-01-23T15:05:14.816Z,12.97
2019-01-23T15:07:42.231Z,10.27
2019-01-23T15:10:11.144Z,16.87
2019-01-23T15:12:38.551Z,9.10
2019-01-23T15:15:06.446Z,11.77
2019-01-23T15:17:33.812Z,10.20
2019-01-23T15:20:01.233Z,10.03
2019-01-23T15:22:28.622Z,13.27
2019-01-23T15:24:56.038Z,8.70
2019-01-23T15:27:23.414Z,13.43
2019-01-23T15:29:50.826Z,9.90
2019-01-23T15:32:18.218Z,10.13
2019-01-23T15:34:45.733Z,12.70
2019-01-23T15:37:13.121Z,14.30
2019-01-23T15:39:40.538Z,19.67
2019-01-23T15:42:07.921Z,12.97
2019-01-23T15:44:35.357Z,13.93
2019-01-23T15:47:02.753Z,16.07
2019-01-23T15:49:30.180Z,13.60
2019-01-23T15:51:57.562Z,8.80
2019-01-23T15:54:24.972Z,12.83
2019-01-23T15:56:52.443Z,18.67
2019-01-23T15:59:19.849Z,12.53
2019-01-23T16:01:47.229Z,9.53
2019-01-23T16:04:14.649Z,11.03
2019-01-23T16:06:42.043Z,13.37
2019-01-23T16:09:09.464Z,11.77
2019-01-23T16:11:36.854Z,12.10
2019-01-23T16:14:04.331Z,10.90
2019-01-23T16:16:31.766Z,13.83
2019-01-23T16:18:59.171Z,9.57
2019-01-23T16:21:26.569Z,12.47
2019-01-23T16:23:53.984Z,10.33
2019-01-23T16:26:21.369Z,14.13
2019-01-23T16:28:48.783Z,13.13
2019-01-23T16:31:16.239Z,13.37
2019-01-23T16:33:43.628Z,15.97
2019-01-23T16:36:11.065Z,11.97
2019-01-23T16:38:38.594Z,15.33
2019-01-23T16:41:06.136Z,12.30
2019-01-23T16:43:33.593Z,10.00
2019-01-23T16:46:01.140Z,14.40
2019-01-23T16:48:28.595Z,16.63
2019-01-23T16:50:56.094Z,12.87
2019-01-23T16:53:24.049Z,11.50
2019-01-23T16:55:51.804Z,13.30
2019-01-23T16:58:19.356Z,13.83
2019-01-23T17:00:46.845Z,17.77
2019-01-23T17:03:14.376Z,10.67
2019-01-23T17:05:41.790Z,14.63
2019-01-23T17:08:09.659Z,14.33
2019-01-23T17:10:37.133Z,15.77
2019-01-23T17:13:04.587Z,17.80
2019-01-23T17:15:32.006Z,14.70
2019-01-23T17:17:59.395Z,13.37
2019-01-23T17:20:28.352Z,12.75
2019-01-23T17:22:55.878Z,9.30
2019-01-23T17:25:23.358Z,10.17
2019-01-23T17:27:50.741Z,12.00
2019-01-23T17:30:19.438Z,12.47
2019-01-23T17:32:46.813Z,14.40
2019-01-23T17:35:15.801Z,12.10
2019-01-23T17:37:43.261Z,14.50
2019-01-23T17:40:12.360Z,20.63
2019-01-23T17:42:39.807Z,72.00
2019-01-23T17:45:08.851Z,32.03
2019-01-23T17:47:36.260Z,23.73
2019-01-23T17:50:05.658Z,25.17
2019-01-23T17:52:33.074Z,31.60
2019-01-23T17:55:00.537Z,31.30
2019-01-23T17:57:27.964Z,28.90
2019-01-23T17:59:55.351Z,26.50
2019-01-23T18:02:22.769Z,30.43
2019-01-23T18:04:50.401Z,29.40
2019-01-23T18:07:20.515Z,29.20
2019-01-23T18:09:47.570Z,31.27
2019-01-23T18:12:14.990Z,32.80
2019-01-23T18:14:48.892Z,32.37
2019-01-23T18:17:11.443Z,29.27
2019-01-23T18:19:38.833Z,33.63
2019-01-23T18:22:06.260Z,28.50
2019-01-23T18:24:33.649Z,31.47
2019-01-23T18:27:01.140Z,25.17
2019-01-23T18:29:28.700Z,27.23
2019-01-23T18:31:56.188Z,18.97
2019-01-23T18:34:25.235Z,36.23
2019-01-23T18:37:00.556Z,28.97
2019-01-23T18:39:29.487Z,25.83
2019-01-23T18:42:04.451Z,24.97
2019-01-23T18:44:45.541Z,51.63
2019-01-23T18:47:17.496Z,29.20
2019-01-23T18:50:01.723Z,22.70
2019-01-23T18:52:29.218Z,33.27
2019-01-23T18:54:56.615Z,22.17
2019-01-23T18:57:31.081Z,18.30
2019-01-23T18:59:59.242Z,27.70
2019-01-23T19:02:27.185Z,22.60
2019-01-23T19:04:54.649Z,23.57
2019-01-23T19:07:22.131Z,25.63
2019-01-23T19:09:49.585Z,23.20
2019-01-23T19:12:17.037Z,21.73
2019-01-23T19:14:44.436Z,23.27
2019-01-23T19:17:11.857Z,18.77
2019-01-23T19:19:39.249Z,26.43
2019-01-23T19:22:06.691Z,17.27
2019-01-23T19:24:34.084Z,23.57
2019-01-23T19:27:01.948Z,20.47
2019-01-23T19:29:29.430Z,23.87
2019-01-23T19:31:56.941Z,25.07
2019-01-23T19:34:24.317Z,19.80
2019-01-23T19:36:51.747Z,26.37
2019-01-23T19:39:19.528Z,24.60
2019-01-23T19:41:46.943Z,20.17
2019-01-23T19:44:14.332Z,20.50
2019-01-23T19:46:41.797Z,22.90
2019-01-23T19:49:09.248Z,32.50
2019-01-23T19:51:36.607Z,24.47
2019-01-23T19:54:04.601Z,26.03
2019-01-23T19:56:31.994Z,18.63
2019-01-23T19:58:59.410Z,26.70
2019-01-23T20:01:26.870Z,30.87
2019-01-23T20:03:54.362Z,26.60
2019-01-23T20:06:21.792Z,22.77
2019-01-23T20:08:49.208Z,23.23
2019-01-23T20:11:16.604Z,20.50
2019-01-23T20:13:44.082Z,27.23
2019-01-23T20:16:11.473Z,18.03
2019-01-23T20:18:38.893Z,26.13
2019-01-23T20:21:06.350Z,18.00
2019-01-23T20:23:33.786Z,20.93
2019-01-23T20:26:01.179Z,23.00
2019-01-23T20:28:28.595Z,28.53
2019-01-23T20:30:55.989Z,24.27
2019-01-23T20:33:27.948Z,23.50
2019-01-23T20:35:52.453Z,23.03
2019-01-23T20:38:19.890Z,24.73
2019-01-23T20:40:47.336Z,20.50
2019-01-23T20:43:14.733Z,23.30
2019-01-23T20:45:42.197Z,26.40
2019-01-23T20:48:09.690Z,25.70
2019-01-23T20:50:37.072Z,24.10
2019-01-23T20:53:04.462Z,16.87
2019-01-23T20:55:31.891Z,24.73
2019-01-23T20:57:59.453Z,21.53
2019-01-23T21:00:33.314Z,20.90
2019-01-23T21:03:00.885Z,22.60
2019-01-23T21:05:28.472Z,26.90
2019-01-23T21:07:55.934Z,22.53
2019-01-23T21:10:24.529Z,23.47
2019-01-23T21:12:52.248Z,22.80
2019-01-23T21:15:20.939Z,28.67
2019-01-23T21:17:48.324Z,20.77
2019-01-23T21:20:15.752Z,19.63
2019-01-23T21:22:43.304Z,22.30
2019-01-23T21:25:10.794Z,25.02
2019-01-23T21:27:38.186Z,21.47
2019-01-23T21:30:10.093Z,19.30
2019-01-23T21:32:37.534Z,23.03
2019-01-23T21:35:06.356Z,19.67
2019-01-23T21:37:33.886Z,26.53
2019-01-23T21:40:01.383Z,24.97
2019-01-23T21:42:28.789Z,25.00
2019-01-23T21:44:56.205Z,25.17
2019-01-23T21:47:23.675Z,25.07
2019-01-23T21:49:51.110Z,24.60
2019-01-23T21:52:18.524Z,34.10
2019-01-23T21:54:46.012Z,26.27
2019-01-23T21:57:13.414Z,40.63
2019-01-23T21:59:40.864Z,73.20
2019-01-23T22:02:08.299Z,46.00
2019-01-23T22:04:35.687Z,60.37
2019-01-23T22:07:03.190Z,61.20
2019-01-23T22:09:30.582Z,57.93
2019-01-23T22:11:58.009Z,73.50
2019-01-23T22:14:25.399Z,65.83
2019-01-23T22:16:52.827Z,45.93
2019-01-23T22:19:20.225Z,61.33
2019-01-23T22:21:47.642Z,61.50
2019-01-23T22:24:15.034Z,52.23
2019-01-23T22:26:42.549Z,52.00
2019-01-23T22:29:09.942Z,45.13
2019-01-23T22:31:37.386Z,52.63
2019-01-23T22:34:04.931Z,43.00
2019-01-23T22:36:32.358Z,53.00
2019-01-23T22:38:59.754Z,49.03
2019-01-23T22:41:27.173Z,44.77
2019-01-23T22:43:54.575Z,45.57
2019-01-23T22:46:22.002Z,52.43
2019-01-23T22:48:49.390Z,54.83
2019-01-23T22:51:16.809Z,43.00
2019-01-23T22:53:44.202Z,45.07
2019-01-23T22:56:11.633Z,41.47
2019-01-23T22:58:39.048Z,43.57
2019-01-23T23:01:08.187Z,41.00
2019-01-23T23:03:35.572Z,39.67
2019-01-23T23:06:03.070Z,38.20
2019-01-23T23:08:30.448Z,40.80
2019-01-23T23:10:57.866Z,36.98
2019-01-23T23:13:25.256Z,41.37
2019-01-23T23:15:52.680Z,43.60
2019-01-23T23:18:20.074Z,37.47
2019-01-23T23:20:47.571Z,33.70
2019-01-23T23:23:14.958Z,45.30
2019-01-23T23:25:42.357Z,40.07
2019-01-23T23:28:09.904Z,31.90
2019-01-23T23:30:37.369Z,32.40
2019-01-23T23:33:04.871Z,35.53
2019-01-23T23:35:32.283Z,32.93
2019-01-23T23:37:59.783Z,35.27
2019-01-23T23:40:27.164Z,33.60
2019-01-23T23:42:54.576Z,35.37
2019-01-23T23:45:22.136Z,39.17
2019-01-23T23:47:49.696Z,31.47
2019-01-23T23:50:17.656Z,28.93
2019-01-23T23:52:45.344Z,33.90
2019-01-23T23:55:13.535Z,36.33
2019-01-23T23:57:41.031Z,30.23
